sensor_id;sensor_type;location;lat;lon;timestamp;temperature;humidity
52565;DHT22;38460;53.106;7.004;2022-11-15T00:00:28;7.50;99.90
52565;DHT22;38460;53.106;7.004;2022-11-15T00:02:54;7.50;99.90
52565;DHT22;38460;53.106;7.004;2022-11-15T00:05:20;7.50;99.90
52565;DHT22;38460;53.106;7.004;2022-11-15T00:07:46;7.50;99.90
52565;DHT22;38460;53.106;7.004;2022-11-15T00:10:12;7.50;99.90
52565;DHT22;38460;53.106;7.004;2022-11-15T00:12:38;7.50;99.90
52565;DHT22;38460;53.106;7.004;2022-11-15T00:15:04;7.50;99.90
52565;DHT22;38460;53.106;7.004;2022-11-15T00:17:30;7.40;99.90
52565;DHT22;38460;53.106;7.004;2022-11-15T00:19:56;7.70;99.90
52565;DHT22;38460;53.106;7.004;2022-11-15T00:22:21;7.40;99.90
52565;DHT22;38460;53.106;7.004;2022-11-15T00:24:47;7.30;99.90
52565;DHT22;38460;53.106;7.004;2022-11-15T00:27:13;7.30;99.90
52565;DHT22;38460;53.106;7.004;2022-11-15T00:29:38;7.30;99.90
52565;DHT22;38460;53.106;7.004;2022-11-15T00:32:09;7.30;99.90
52565;DHT22;38460;53.106;7.004;2022-11-15T00:34:35;7.30;99.90
52565;DHT22;38460;53.106;7.004;2022-11-15T00:37:01;7.20;99.90
52565;DHT22;38460;53.106;7.004;2022-11-15T00:39:27;7.20;99.90
52565;DHT22;38460;53.106;7.004;2022-11-15T00:41:53;7.20;99.90
52565;DHT22;38460;53.106;7.004;2022-11-15T00:44:18;7.20;99.90
52565;DHT22;38460;53.106;7.004;2022-11-15T00:46:44;7.20;99.90
52565;DHT22;38460;53.106;7.004;2022-11-15T00:49:10;7.20;99.90
52565;DHT22;38460;53.106;7.004;2022-11-15T00:51:35;7.10;99.90
52565;DHT22;38460;53.106;7.004;2022-11-15T00:54:01;7.10;99.90
52565;DHT22;38460;53.106;7.004;2022-11-15T00:56:27;7.10;99.90
52565;DHT22;38460;53.106;7.004;2022-11-15T00:58:53;7.10;99.90
52565;DHT22;38460;53.106;7.004;2022-11-15T01:01:18;7.10;99.90
52565;DHT22;38460;53.106;7.004;2022-11-15T01:03:44;7.10;99.90
52565;DHT22;38460;53.106;7.004;2022-11-15T01:06:10;7.10;99.90
52565;DHT22;38460;53.106;7.004;2022-11-15T01:08:38;7.10;99.90
52565;DHT22;38460;53.106;7.004;2022-11-15T01:11:08;7.10;99.90
52565;DHT22;38460;53.106;7.004;2022-11-15T01:13:35;7.00;99.90
52565;DHT22;38460;53.106;7.004;2022-11-15T01:16:13;7.10;99.90
52565;DHT22;38460;53.106;7.004;2022-11-15T01:18:40;7.10;99.90
52565;DHT22;38460;53.106;7.004;2022-11-15T01:21:11;7.10;99.90
52565;DHT22;38460;53.106;7.004;2022-11-15T01:23:37;7.10;99.90
52565;DHT22;38460;53.106;7.004;2022-11-15T01:26:04;7.10;99.90
52565;DHT22;38460;53.106;7.004;2022-11-15T01:28:32;7.10;99.90
52565;DHT22;38460;53.106;7.004;2022-11-15T01:31:00;7.10;99.90
52565;DHT22;38460;53.106;7.004;2022-11-15T01:33:26;7.20;99.90
52565;DHT22;38460;53.106;7.004;2022-11-15T01:35:52;7.20;99.90
52565;DHT22;38460;53.106;7.004;2022-11-15T01:38:18;7.20;99.90
52565;DHT22;38460;53.106;7.004;2022-11-15T01:40:43;7.20;99.90
52565;DHT22;38460;53.106;7.004;2022-11-15T01:43:29;7.20;99.90
52565;DHT22;38460;53.106;7.004;2022-11-15T01:48:52;7.20;99.90
52565;DHT22;38460;53.106;7.004;2022-11-15T01:51:22;7.30;99.90
52565;DHT22;38460;53.106;7.004;2022-11-15T01:53:52;7.30;99.90
52565;DHT22;38460;53.106;7.004;2022-11-15T01:56:21;7.30;99.90
52565;DHT22;38460;53.106;7.004;2022-11-15T01:58:48;7.30;99.90
52565;DHT22;38460;53.106;7.004;2022-11-15T02:01:14;7.30;99.90
52565;DHT22;38460;53.106;7.004;2022-11-15T02:06:26;7.30;99.90
52565;DHT22;38460;53.106;7.004;2022-11-15T02:08:52;7.30;99.90
52565;DHT22;38460;53.106;7.004;2022-11-15T02:11:18;7.40;99.90
52565;DHT22;38460;53.106;7.004;2022-11-15T02:13:44;7.40;99.90
52565;DHT22;38460;53.106;7.004;2022-11-15T02:18:58;7.40;99.90
52565;DHT22;38460;53.106;7.004;2022-11-15T02:21:37;7.40;99.90
52565;DHT22;38460;53.106;7.004;2022-11-15T02:24:23;7.40;99.90
52565;DHT22;38460;53.106;7.004;2022-11-15T02:27:13;7.50;99.90
52565;DHT22;38460;53.106;7.004;2022-11-15T02:32:49;7.50;99.90
52565;DHT22;38460;53.106;7.004;2022-11-15T02:35:28;7.50;99.90
52565;DHT22;38460;53.106;7.004;2022-11-15T02:38:27;7.50;99.90
52565;DHT22;38460;53.106;7.004;2022-11-15T02:40:57;7.50;99.90
52565;DHT22;38460;53.106;7.004;2022-11-15T02:43:38;7.50;99.90
52565;DHT22;38460;53.106;7.004;2022-11-15T02:46:40;7.60;99.90
52565;DHT22;38460;53.106;7.004;2022-11-15T02:49:28;7.60;99.90
52565;DHT22;38460;53.106;7.004;2022-11-15T02:51:55;7.60;99.90
52565;DHT22;38460;53.106;7.004;2022-11-15T02:54:30;7.60;99.90
52565;DHT22;38460;53.106;7.004;2022-11-15T02:57:02;7.60;99.90
52565;DHT22;38460;53.106;7.004;2022-11-15T03:00:01;7.60;99.90
52565;DHT22;38460;53.106;7.004;2022-11-15T03:03:00;7.60;99.90
52565;DHT22;38460;53.106;7.004;2022-11-15T03:05:37;7.60;99.90
52565;DHT22;38460;53.106;7.004;2022-11-15T03:08:29;7.60;99.90
52565;DHT22;38460;53.106;7.004;2022-11-15T03:11:14;7.60;99.90
52565;DHT22;38460;53.106;7.004;2022-11-15T03:14:00;7.60;99.90
52565;DHT22;38460;53.106;7.004;2022-11-15T03:19:15;7.70;99.90
52565;DHT22;38460;53.106;7.004;2022-11-15T03:21:41;7.70;99.90
52565;DHT22;38460;53.106;7.004;2022-11-15T03:24:08;7.70;99.90
52565;DHT22;38460;53.106;7.004;2022-11-15T03:26:36;7.20;99.90
52565;DHT22;38460;53.106;7.004;2022-11-15T03:29:12;7.70;99.90
52565;DHT22;38460;53.106;7.004;2022-11-15T03:31:45;7.70;99.90
52565;DHT22;38460;53.106;7.004;2022-11-15T03:34:24;7.70;99.90
52565;DHT22;38460;53.106;7.004;2022-11-15T03:36:52;7.70;99.90
52565;DHT22;38460;53.106;7.004;2022-11-15T03:39:18;7.70;99.90
52565;DHT22;38460;53.106;7.004;2022-11-15T03:47:27;7.70;99.90
52565;DHT22;38460;53.106;7.004;2022-11-15T03:49:57;7.70;99.90
52565;DHT22;38460;53.106;7.004;2022-11-15T03:52:24;7.70;99.90
52565;DHT22;38460;53.106;7.004;2022-11-15T03:54:53;7.70;99.90
52565;DHT22;38460;53.106;7.004;2022-11-15T03:57:19;7.80;99.90
52565;DHT22;38460;53.106;7.004;2022-11-15T03:59:44;7.80;99.90
52565;DHT22;38460;53.106;7.004;2022-11-15T04:02:10;7.80;99.90
52565;DHT22;38460;53.106;7.004;2022-11-15T04:04:36;7.80;99.90
52565;DHT22;38460;53.106;7.004;2022-11-15T04:07:02;7.80;99.90
52565;DHT22;38460;53.106;7.004;2022-11-15T04:09:27;7.80;99.90
52565;DHT22;38460;53.106;7.004;2022-11-15T04:11:53;7.80;99.90
52565;DHT22;38460;53.106;7.004;2022-11-15T04:14:19;7.80;99.90
52565;DHT22;38460;53.106;7.004;2022-11-15T04:16:44;7.90;99.90
52565;DHT22;38460;53.106;7.004;2022-11-15T04:19:10;7.80;99.90
52565;DHT22;38460;53.106;7.004;2022-11-15T04:21:54;7.80;99.90
52565;DHT22;38460;53.106;7.004;2022-11-15T04:24:39;7.90;99.90
52565;DHT22;38460;53.106;7.004;2022-11-15T04:27:04;7.90;99.90
52565;DHT22;38460;53.106;7.004;2022-11-15T04:29:30;7.90;99.90
52565;DHT22;38460;53.106;7.004;2022-11-15T04:32:03;7.90;99.90
52565;DHT22;38460;53.106;7.004;2022-11-15T04:34:29;7.90;99.90
52565;DHT22;38460;53.106;7.004;2022-11-15T04:36:55;7.90;99.90
52565;DHT22;38460;53.106;7.004;2022-11-15T04:39:42;7.90;99.90
52565;DHT22;38460;53.106;7.004;2022-11-15T04:42:09;7.90;99.90
52565;DHT22;38460;53.106;7.004;2022-11-15T04:44:35;7.90;99.90
52565;DHT22;38460;53.106;7.004;2022-11-15T04:47:01;7.90;99.90
52565;DHT22;38460;53.106;7.004;2022-11-15T04:49:27;7.90;99.90
52565;DHT22;38460;53.106;7.004;2022-11-15T04:51:53;7.90;99.90
52565;DHT22;38460;53.106;7.004;2022-11-15T04:54:19;8.00;99.90
52565;DHT22;38460;53.106;7.004;2022-11-15T04:56:44;7.90;99.90
52565;DHT22;38460;53.106;7.004;2022-11-15T04:59:10;7.90;99.90
52565;DHT22;38460;53.106;7.004;2022-11-15T05:01:36;8.00;99.90
52565;DHT22;38460;53.106;7.004;2022-11-15T05:04:01;7.90;99.90
52565;DHT22;38460;53.106;7.004;2022-11-15T05:06:47;8.00;99.90
52565;DHT22;38460;53.106;7.004;2022-11-15T05:09:13;7.90;99.90
52565;DHT22;38460;53.106;7.004;2022-11-15T05:11:39;8.00;99.90
52565;DHT22;38460;53.106;7.004;2022-11-15T05:14:05;8.00;99.90
52565;DHT22;38460;53.106;7.004;2022-11-15T05:16:31;8.00;99.90
52565;DHT22;38460;53.106;7.004;2022-11-15T05:18:56;8.00;99.90
52565;DHT22;38460;53.106;7.004;2022-11-15T05:21:22;8.00;99.90
52565;DHT22;38460;53.106;7.004;2022-11-15T05:23:48;8.10;99.90
52565;DHT22;38460;53.106;7.004;2022-11-15T05:26:16;8.10;99.90
52565;DHT22;38460;53.106;7.004;2022-11-15T05:28:43;8.10;99.90
52565;DHT22;38460;53.106;7.004;2022-11-15T05:31:11;8.10;99.90
52565;DHT22;38460;53.106;7.004;2022-11-15T05:33:41;8.30;99.90
52565;DHT22;38460;53.106;7.004;2022-11-15T05:36:37;8.20;99.90
52565;DHT22;38460;53.106;7.004;2022-11-15T05:39:06;8.20;99.90
52565;DHT22;38460;53.106;7.004;2022-11-15T05:41:50;8.30;99.90
52565;DHT22;38460;53.106;7.004;2022-11-15T05:44:21;8.30;99.90
52565;DHT22;38460;53.106;7.004;2022-11-15T05:46:47;8.30;99.90
52565;DHT22;38460;53.106;7.004;2022-11-15T05:49:17;8.30;99.90
52565;DHT22;38460;53.106;7.004;2022-11-15T05:51:46;8.40;99.90
52565;DHT22;38460;53.106;7.004;2022-11-15T05:54:12;8.40;99.90
52565;DHT22;38460;53.106;7.004;2022-11-15T05:56:39;8.40;99.90
52565;DHT22;38460;53.106;7.004;2022-11-15T05:59:05;8.40;99.90
52565;DHT22;38460;53.106;7.004;2022-11-15T06:01:32;8.50;99.90
52565;DHT22;38460;53.106;7.004;2022-11-15T06:03:58;8.50;99.90
52565;DHT22;38460;53.106;7.004;2022-11-15T06:06:24;8.60;99.90
52565;DHT22;38460;53.106;7.004;2022-11-15T06:08:49;8.60;99.90
52565;DHT22;38460;53.106;7.004;2022-11-15T06:11:15;8.60;99.90
52565;DHT22;38460;53.106;7.004;2022-11-15T06:13:41;8.60;99.90
52565;DHT22;38460;53.106;7.004;2022-11-15T06:16:07;8.70;99.90
52565;DHT22;38460;53.106;7.004;2022-11-15T06:18:33;8.70;99.90
52565;DHT22;38460;53.106;7.004;2022-11-15T06:21:00;8.80;99.90
52565;DHT22;38460;53.106;7.004;2022-11-15T06:23:26;8.80;99.90
52565;DHT22;38460;53.106;7.004;2022-11-15T06:25:52;8.80;99.90
52565;DHT22;38460;53.106;7.004;2022-11-15T06:28:17;8.80;99.90
52565;DHT22;38460;53.106;7.004;2022-11-15T06:30:43;8.80;99.90
52565;DHT22;38460;53.106;7.004;2022-11-15T06:33:09;8.90;99.90
52565;DHT22;38460;53.106;7.004;2022-11-15T06:35:35;9.00;99.90
52565;DHT22;38460;53.106;7.004;2022-11-15T06:38:08;8.90;99.90
52565;DHT22;38460;53.106;7.004;2022-11-15T06:40:38;9.00;99.90
52565;DHT22;38460;53.106;7.004;2022-11-15T06:43:05;9.00;99.90
52565;DHT22;38460;53.106;7.004;2022-11-15T06:45:31;9.10;99.90
52565;DHT22;38460;53.106;7.004;2022-11-15T06:47:57;9.10;99.90
52565;DHT22;38460;53.106;7.004;2022-11-15T06:50:24;9.10;99.90
52565;DHT22;38460;53.106;7.004;2022-11-15T06:52:50;9.20;99.90
52565;DHT22;38460;53.106;7.004;2022-11-15T06:55:15;9.20;99.90
52565;DHT22;38460;53.106;7.004;2022-11-15T06:57:52;9.20;99.90
52565;DHT22;38460;53.106;7.004;2022-11-15T07:00:19;9.30;99.90
52565;DHT22;38460;53.106;7.004;2022-11-15T07:02:45;9.30;99.90
52565;DHT22;38460;53.106;7.004;2022-11-15T07:05:12;9.30;99.90
52565;DHT22;38460;53.106;7.004;2022-11-15T07:07:38;9.30;99.90
52565;DHT22;38460;53.106;7.004;2022-11-15T07:10:05;9.30;99.90
52565;DHT22;38460;53.106;7.004;2022-11-15T07:12:31;9.40;99.90
52565;DHT22;38460;53.106;7.004;2022-11-15T07:14:56;9.40;99.90
52565;DHT22;38460;53.106;7.004;2022-11-15T07:17:22;9.40;99.90
52565;DHT22;38460;53.106;7.004;2022-11-15T07:19:48;9.40;99.90
52565;DHT22;38460;53.106;7.004;2022-11-15T07:22:13;9.50;99.90
52565;DHT22;38460;53.106;7.004;2022-11-15T07:24:39;9.50;99.90
52565;DHT22;38460;53.106;7.004;2022-11-15T07:27:05;9.50;99.90
52565;DHT22;38460;53.106;7.004;2022-11-15T07:29:30;9.60;99.90
52565;DHT22;38460;53.106;7.004;2022-11-15T07:31:56;9.50;99.90
52565;DHT22;38460;53.106;7.004;2022-11-15T07:34:22;9.60;99.90
52565;DHT22;38460;53.106;7.004;2022-11-15T07:36:49;9.60;99.90
52565;DHT22;38460;53.106;7.004;2022-11-15T07:39:15;9.60;99.90
52565;DHT22;38460;53.106;7.004;2022-11-15T07:41:40;9.70;99.90
52565;DHT22;38460;53.106;7.004;2022-11-15T07:44:06;9.70;99.90
52565;DHT22;38460;53.106;7.004;2022-11-15T07:46:32;9.70;99.90
52565;DHT22;38460;53.106;7.004;2022-11-15T07:48:57;9.80;99.90
52565;DHT22;38460;53.106;7.004;2022-11-15T07:51:23;9.80;99.90
52565;DHT22;38460;53.106;7.004;2022-11-15T07:53:49;9.80;99.90
52565;DHT22;38460;53.106;7.004;2022-11-15T07:56:15;9.90;99.90
52565;DHT22;38460;53.106;7.004;2022-11-15T07:58:41;9.90;99.90
52565;DHT22;38460;53.106;7.004;2022-11-15T08:01:08;10.00;99.90
52565;DHT22;38460;53.106;7.004;2022-11-15T08:03:35;10.00;99.90
52565;DHT22;38460;53.106;7.004;2022-11-15T08:06:01;10.10;99.90
52565;DHT22;38460;53.106;7.004;2022-11-15T08:08:27;10.10;99.90
52565;DHT22;38460;53.106;7.004;2022-11-15T08:10:53;10.10;99.90
52565;DHT22;38460;53.106;7.004;2022-11-15T08:13:19;10.10;99.90
52565;DHT22;38460;53.106;7.004;2022-11-15T08:15:45;10.20;99.90
52565;DHT22;38460;53.106;7.004;2022-11-15T08:18:15;10.20;99.90
52565;DHT22;38460;53.106;7.004;2022-11-15T08:20:42;10.30;99.90
52565;DHT22;38460;53.106;7.004;2022-11-15T08:23:10;10.30;99.90
52565;DHT22;38460;53.106;7.004;2022-11-15T08:25:36;10.30;99.90
52565;DHT22;38460;53.106;7.004;2022-11-15T08:28:06;10.30;99.90
52565;DHT22;38460;53.106;7.004;2022-11-15T08:30:36;10.40;99.90
52565;DHT22;38460;53.106;7.004;2022-11-15T08:33:03;10.40;99.90
52565;DHT22;38460;53.106;7.004;2022-11-15T08:35:29;10.50;99.90
52565;DHT22;38460;53.106;7.004;2022-11-15T08:37:55;10.50;99.90
52565;DHT22;38460;53.106;7.004;2022-11-15T08:40:21;10.60;99.90
52565;DHT22;38460;53.106;7.004;2022-11-15T08:42:47;10.60;99.90
52565;DHT22;38460;53.106;7.004;2022-11-15T08:45:13;10.60;99.90
52565;DHT22;38460;53.106;7.004;2022-11-15T08:47:39;10.70;99.90
52565;DHT22;38460;53.106;7.004;2022-11-15T08:50:05;10.70;99.90
52565;DHT22;38460;53.106;7.004;2022-11-15T08:52:31;10.70;99.90
52565;DHT22;38460;53.106;7.004;2022-11-15T08:54:57;10.80;99.90
52565;DHT22;38460;53.106;7.004;2022-11-15T08:57:23;10.80;99.90
52565;DHT22;38460;53.106;7.004;2022-11-15T08:59:49;10.90;99.90
52565;DHT22;38460;53.106;7.004;2022-11-15T09:02:16;10.90;99.90
52565;DHT22;38460;53.106;7.004;2022-11-15T09:04:42;11.00;99.90
52565;DHT22;38460;53.106;7.004;2022-11-15T09:07:11;11.00;99.90
52565;DHT22;38460;53.106;7.004;2022-11-15T09:09:39;11.10;99.90
52565;DHT22;38460;53.106;7.004;2022-11-15T09:12:06;11.10;99.90
52565;DHT22;38460;53.106;7.004;2022-11-15T09:14:32;11.10;99.90
52565;DHT22;38460;53.106;7.004;2022-11-15T09:16:58;11.10;99.90
52565;DHT22;38460;53.106;7.004;2022-11-15T09:19:24;11.20;99.90
52565;DHT22;38460;53.106;7.004;2022-11-15T09:21:50;11.20;99.90
52565;DHT22;38460;53.106;7.004;2022-11-15T09:24:16;11.20;99.90
52565;DHT22;38460;53.106;7.004;2022-11-15T09:26:43;11.20;99.90
52565;DHT22;38460;53.106;7.004;2022-11-15T09:29:09;11.30;99.90
52565;DHT22;38460;53.106;7.004;2022-11-15T09:31:34;11.30;99.90
52565;DHT22;38460;53.106;7.004;2022-11-15T09:34:00;11.30;99.90
52565;DHT22;38460;53.106;7.004;2022-11-15T09:36:26;11.30;99.90
52565;DHT22;38460;53.106;7.004;2022-11-15T09:38:52;11.30;99.90
52565;DHT22;38460;53.106;7.004;2022-11-15T09:41:25;11.40;99.90
52565;DHT22;38460;53.106;7.004;2022-11-15T09:46:52;11.40;99.90
52565;DHT22;38460;53.106;7.004;2022-11-15T09:49:22;11.40;99.90
52565;DHT22;38460;53.106;7.004;2022-11-15T09:51:53;11.40;99.90
52565;DHT22;38460;53.106;7.004;2022-11-15T09:57:06;11.40;99.90
52565;DHT22;38460;53.106;7.004;2022-11-15T10:05:23;11.50;99.90
52565;DHT22;38460;53.106;7.004;2022-11-15T10:08:02;11.50;99.90
52565;DHT22;38460;53.106;7.004;2022-11-15T10:10:55;11.50;99.90
52565;DHT22;38460;53.106;7.004;2022-11-15T10:13:31;11.50;99.90
52565;DHT22;38460;53.106;7.004;2022-11-15T10:16:17;11.50;99.90
52565;DHT22;38460;53.106;7.004;2022-11-15T10:21:28;11.50;99.90
52565;DHT22;38460;53.106;7.004;2022-11-15T10:23:55;11.50;99.90
52565;DHT22;38460;53.106;7.004;2022-11-15T10:26:21;11.50;99.90
52565;DHT22;38460;53.106;7.004;2022-11-15T10:28:48;11.60;99.90
52565;DHT22;38460;53.106;7.004;2022-11-15T10:31:26;11.60;99.90
52565;DHT22;38460;53.106;7.004;2022-11-15T10:34:11;11.60;99.90
52565;DHT22;38460;53.106;7.004;2022-11-15T10:36:38;11.60;99.90
52565;DHT22;38460;53.106;7.004;2022-11-15T10:39:03;11.60;99.90
52565;DHT22;38460;53.106;7.004;2022-11-15T10:41:32;11.60;99.90
52565;DHT22;38460;53.106;7.004;2022-11-15T10:46:33;12.00;99.90
52565;DHT22;38460;53.106;7.004;2022-11-15T10:54:37;11.70;99.90
52565;DHT22;38460;53.106;7.004;2022-11-15T10:57:12;11.70;99.90
52565;DHT22;38460;53.106;7.004;2022-11-15T10:59:44;11.70;99.90
52565;DHT22;38460;53.106;7.004;2022-11-15T11:04:55;11.70;99.90
52565;DHT22;38460;53.106;7.004;2022-11-15T11:07:26;11.70;99.90
52565;DHT22;38460;53.106;7.004;2022-11-15T11:10:02;11.70;99.90
52565;DHT22;38460;53.106;7.004;2022-11-15T11:12:30;11.70;99.90
52565;DHT22;38460;53.106;7.004;2022-11-15T11:14:58;11.70;99.90
52565;DHT22;38460;53.106;7.004;2022-11-15T11:17:41;11.80;99.90
52565;DHT22;38460;53.106;7.004;2022-11-15T11:20:44;11.80;99.90
52565;DHT22;38460;53.106;7.004;2022-11-15T11:26:02;11.90;99.90
52565;DHT22;38460;53.106;7.004;2022-11-15T11:33:55;11.90;99.90
52565;DHT22;38460;53.106;7.004;2022-11-15T11:36:39;12.00;99.90
52565;DHT22;38460;53.106;7.004;2022-11-15T11:44:42;12.10;99.90
52565;DHT22;38460;53.106;7.004;2022-11-15T11:47:13;12.10;99.90
52565;DHT22;38460;53.106;7.004;2022-11-15T11:49:45;12.10;99.90
52565;DHT22;38460;53.106;7.004;2022-11-15T11:52:35;12.10;99.90
52565;DHT22;38460;53.106;7.004;2022-11-15T11:55:23;12.20;99.90
52565;DHT22;38460;53.106;7.004;2022-11-15T11:57:52;12.30;99.90
52565;DHT22;38460;53.106;7.004;2022-11-15T12:00:23;12.40;99.90
52565;DHT22;38460;53.106;7.004;2022-11-15T12:14:04;12.40;99.90
52565;DHT22;38460;53.106;7.004;2022-11-15T12:16:32;12.40;99.90
52565;DHT22;38460;53.106;7.004;2022-11-15T12:19:03;12.40;99.90
52565;DHT22;38460;53.106;7.004;2022-11-15T12:21:41;12.40;99.90
52565;DHT22;38460;53.106;7.004;2022-11-15T12:26:49;12.30;99.90
52565;DHT22;38460;53.106;7.004;2022-11-15T12:29:37;12.40;99.90
52565;DHT22;38460;53.106;7.004;2022-11-15T12:32:05;12.30;99.90
52565;DHT22;38460;53.106;7.004;2022-11-15T12:34:43;12.40;99.90
52565;DHT22;38460;53.106;7.004;2022-11-15T12:40:28;12.40;99.90
52565;DHT22;38460;53.106;7.004;2022-11-15T12:45:34;12.50;99.90
52565;DHT22;38460;53.106;7.004;2022-11-15T12:58:56;12.60;99.90
52565;DHT22;38460;53.106;7.004;2022-11-15T13:07:05;12.50;99.90
52565;DHT22;38460;53.106;7.004;2022-11-15T13:12:11;12.40;99.90
52565;DHT22;38460;53.106;7.004;2022-11-15T13:17:45;12.40;99.90
52565;DHT22;38460;53.106;7.004;2022-11-15T13:28:37;12.40;99.90
52565;DHT22;38460;53.106;7.004;2022-11-15T13:31:25;12.40;99.90
52565;DHT22;38460;53.106;7.004;2022-11-15T13:33:52;12.50;99.90
52565;DHT22;38460;53.106;7.004;2022-11-15T13:36:23;12.50;99.90
52565;DHT22;38460;53.106;7.004;2022-11-15T13:39:05;12.50;99.90
52565;DHT22;38460;53.106;7.004;2022-11-15T13:41:34;12.60;99.90
52565;DHT22;38460;53.106;7.004;2022-11-15T13:44:01;12.50;99.90
52565;DHT22;38460;53.106;7.004;2022-11-15T13:46:28;12.50;99.90
52565;DHT22;38460;53.106;7.004;2022-11-15T13:51:46;12.50;99.90
52565;DHT22;38460;53.106;7.004;2022-11-15T13:54:34;12.40;99.90
52565;DHT22;38460;53.106;7.004;2022-11-15T13:57:23;12.50;99.90
52565;DHT22;38460;53.106;7.004;2022-11-15T13:59:59;12.40;99.90
52565;DHT22;38460;53.106;7.004;2022-11-15T14:02:34;12.40;99.90
52565;DHT22;38460;53.106;7.004;2022-11-15T14:05:14;12.40;99.90
52565;DHT22;38460;53.106;7.004;2022-11-15T14:07:56;12.30;99.90
52565;DHT22;38460;53.106;7.004;2022-11-15T14:10:35;12.30;99.90
52565;DHT22;38460;53.106;7.004;2022-11-15T14:13:03;12.30;99.90
52565;DHT22;38460;53.106;7.004;2022-11-15T14:15:32;12.30;99.90
52565;DHT22;38460;53.106;7.004;2022-11-15T14:17:59;12.30;99.90
52565;DHT22;38460;53.106;7.004;2022-11-15T14:22:55;12.20;99.90
52565;DHT22;38460;53.106;7.004;2022-11-15T14:25:22;12.20;99.90
52565;DHT22;38460;53.106;7.004;2022-11-15T14:30:36;12.20;99.90
52565;DHT22;38460;53.106;7.004;2022-11-15T14:33:36;12.10;99.90
52565;DHT22;38460;53.106;7.004;2022-11-15T14:36:15;12.10;99.90
52565;DHT22;38460;53.106;7.004;2022-11-15T14:38:42;12.10;99.90
52565;DHT22;38460;53.106;7.004;2022-11-15T14:41:25;12.00;99.90
52565;DHT22;38460;53.106;7.004;2022-11-15T14:43:58;12.00;99.90
52565;DHT22;38460;53.106;7.004;2022-11-15T14:46:23;12.00;99.90
52565;DHT22;38460;53.106;7.004;2022-11-15T14:48:49;11.90;99.90
52565;DHT22;38460;53.106;7.004;2022-11-15T14:51:17;11.90;99.90
52565;DHT22;38460;53.106;7.004;2022-11-15T14:53:44;11.90;99.90
52565;DHT22;38460;53.106;7.004;2022-11-15T14:56:11;11.90;99.90
52565;DHT22;38460;53.106;7.004;2022-11-15T14:58:37;11.80;99.90
52565;DHT22;38460;53.106;7.004;2022-11-15T15:01:22;11.80;99.90
52565;DHT22;38460;53.106;7.004;2022-11-15T15:03:49;11.70;99.90
52565;DHT22;38460;53.106;7.004;2022-11-15T15:06:17;11.70;99.90
52565;DHT22;38460;53.106;7.004;2022-11-15T15:08:43;11.60;99.90
52565;DHT22;38460;53.106;7.004;2022-11-15T15:11:23;11.50;99.90
52565;DHT22;38460;53.106;7.004;2022-11-15T15:13:50;11.50;99.90
52565;DHT22;38460;53.106;7.004;2022-11-15T15:16:16;11.50;99.90
52565;DHT22;38460;53.106;7.004;2022-11-15T15:18:41;11.40;99.90
52565;DHT22;38460;53.106;7.004;2022-11-15T15:21:24;11.40;99.90
52565;DHT22;38460;53.106;7.004;2022-11-15T15:23:53;11.30;99.90
52565;DHT22;38460;53.106;7.004;2022-11-15T15:26:20;11.30;99.90
52565;DHT22;38460;53.106;7.004;2022-11-15T15:28:45;11.20;99.90
52565;DHT22;38460;53.106;7.004;2022-11-15T15:31:11;11.20;99.90
52565;DHT22;38460;53.106;7.004;2022-11-15T15:33:37;11.10;99.90
52565;DHT22;38460;53.106;7.004;2022-11-15T15:36:03;11.00;99.90
52565;DHT22;38460;53.106;7.004;2022-11-15T15:38:29;11.00;99.90
52565;DHT22;38460;53.106;7.004;2022-11-15T15:40:55;10.90;99.90
52565;DHT22;38460;53.106;7.004;2022-11-15T15:43:21;10.90;99.90
52565;DHT22;38460;53.106;7.004;2022-11-15T15:45:46;10.90;99.90
52565;DHT22;38460;53.106;7.004;2022-11-15T15:48:14;10.80;99.90
52565;DHT22;38460;53.106;7.004;2022-11-15T15:50:41;10.80;99.90
52565;DHT22;38460;53.106;7.004;2022-11-15T15:53:09;10.70;99.90
52565;DHT22;38460;53.106;7.004;2022-11-15T15:55:36;10.70;99.90
52565;DHT22;38460;53.106;7.004;2022-11-15T15:58:03;10.70;99.90
52565;DHT22;38460;53.106;7.004;2022-11-15T16:00:29;10.70;99.90
52565;DHT22;38460;53.106;7.004;2022-11-15T16:02:58;10.60;99.90
52565;DHT22;38460;53.106;7.004;2022-11-15T16:05:24;10.60;99.90
52565;DHT22;38460;53.106;7.004;2022-11-15T16:07:50;10.60;99.90
52565;DHT22;38460;53.106;7.004;2022-11-15T16:10:28;10.60;99.90
52565;DHT22;38460;53.106;7.004;2022-11-15T16:12:55;10.60;99.90
52565;DHT22;38460;53.106;7.004;2022-11-15T16:15:23;10.50;99.90
52565;DHT22;38460;53.106;7.004;2022-11-15T16:17:54;10.50;99.90
52565;DHT22;38460;53.106;7.004;2022-11-15T16:20:33;10.50;99.90
52565;DHT22;38460;53.106;7.004;2022-11-15T16:23:00;10.50;99.90
52565;DHT22;38460;53.106;7.004;2022-11-15T16:25:26;10.50;99.90
52565;DHT22;38460;53.106;7.004;2022-11-15T16:27:52;10.40;99.90
52565;DHT22;38460;53.106;7.004;2022-11-15T16:30:20;10.40;99.90
52565;DHT22;38460;53.106;7.004;2022-11-15T16:32:46;10.40;99.90
52565;DHT22;38460;53.106;7.004;2022-11-15T16:35:13;10.30;99.90
52565;DHT22;38460;53.106;7.004;2022-11-15T16:37:40;10.30;99.90
52565;DHT22;38460;53.106;7.004;2022-11-15T16:40:30;10.20;99.90
52565;DHT22;38460;53.106;7.004;2022-11-15T16:42:57;10.20;99.90
52565;DHT22;38460;53.106;7.004;2022-11-15T16:45:24;10.20;99.90
52565;DHT22;38460;53.106;7.004;2022-11-15T16:47:52;10.10;99.90
52565;DHT22;38460;53.106;7.004;2022-11-15T16:50:26;10.10;99.90
52565;DHT22;38460;53.106;7.004;2022-11-15T16:52:54;10.10;99.90
52565;DHT22;38460;53.106;7.004;2022-11-15T16:55:22;10.10;99.90
52565;DHT22;38460;53.106;7.004;2022-11-15T16:57:48;10.00;99.90
52565;DHT22;38460;53.106;7.004;2022-11-15T17:00:15;10.00;99.90
52565;DHT22;38460;53.106;7.004;2022-11-15T17:02:46;10.00;99.90
52565;DHT22;38460;53.106;7.004;2022-11-15T17:05:13;10.00;99.90
52565;DHT22;38460;53.106;7.004;2022-11-15T17:07:39;10.00;99.90
52565;DHT22;38460;53.106;7.004;2022-11-15T17:10:05;10.00;99.90
52565;DHT22;38460;53.106;7.004;2022-11-15T17:12:33;10.00;99.90
52565;DHT22;38460;53.106;7.004;2022-11-15T17:14:59;10.00;99.90
52565;DHT22;38460;53.106;7.004;2022-11-15T17:17:24;10.00;99.90
52565;DHT22;38460;53.106;7.004;2022-11-15T17:19:51;10.00;99.90
52565;DHT22;38460;53.106;7.004;2022-11-15T17:22:21;10.00;99.90
52565;DHT22;38460;53.106;7.004;2022-11-15T17:24:46;10.00;99.90
52565;DHT22;38460;53.106;7.004;2022-11-15T17:27:12;9.90;99.90
52565;DHT22;38460;53.106;7.004;2022-11-15T17:29:38;9.90;99.90
52565;DHT22;38460;53.106;7.004;2022-11-15T17:32:05;10.00;99.90
52565;DHT22;38460;53.106;7.004;2022-11-15T17:34:31;10.00;99.90
52565;DHT22;38460;53.106;7.004;2022-11-15T17:36:57;9.90;99.90
52565;DHT22;38460;53.106;7.004;2022-11-15T17:39:23;9.90;99.90
52565;DHT22;38460;53.106;7.004;2022-11-15T17:41:50;10.00;99.90
52565;DHT22;38460;53.106;7.004;2022-11-15T17:44:15;10.00;99.90
52565;DHT22;38460;53.106;7.004;2022-11-15T17:46:41;10.00;99.90
52565;DHT22;38460;53.106;7.004;2022-11-15T17:49:07;10.00;99.90